sensor_id;sensor_type;location;lat;lon;timestamp;P1;durP1;ratioP1;P2;durP2;ratioP2
67904;SDS011;54709;43.614;1.576;2023-03-23T00:01:18;6.47;;;2.63;;
67904;SDS011;54709;43.614;1.576;2023-03-23T00:03:45;4.32;;;2.88;;
67904;SDS011;54709;43.614;1.576;2023-03-23T00:06:12;5.00;;;2.67;;
67904;SDS011;54709;43.614;1.576;2023-03-23T00:08:42;5.35;;;2.97;;
67904;SDS011;54709;43.614;1.576;2023-03-23T00:11:15;5.20;;;2.80;;
67904;SDS011;54709;43.614;1.576;2023-03-23T00:13:43;6.47;;;3.53;;
67904;SDS011;54709;43.614;1.576;2023-03-23T00:16:11;6.00;;;3.63;;
67904;SDS011;54709;43.614;1.576;2023-03-23T00:18:44;6.60;;;3.30;;
67904;SDS011;54709;43.614;1.576;2023-03-23T00:21:09;6.28;;;3.50;;
67904;SDS011;54709;43.614;1.576;2023-03-23T00:23:35;5.80;;;3.83;;
67904;SDS011;54709;43.614;1.576;2023-03-23T00:26:00;6.57;;;4.05;;
67904;SDS011;54709;43.614;1.576;2023-03-23T00:28:27;7.53;;;4.07;;
67904;SDS011;54709;43.614;1.576;2023-03-23T00:33:22;7.30;;;4.13;;
67904;SDS011;54709;43.614;1.576;2023-03-23T00:35:55;5.78;;;4.30;;
67904;SDS011;54709;43.614;1.576;2023-03-23T00:38:21;6.20;;;4.45;;
67904;SDS011;54709;43.614;1.576;2023-03-23T00:40:47;5.45;;;4.07;;
67904;SDS011;54709;43.614;1.576;2023-03-23T00:43:14;7.63;;;4.35;;
67904;SDS011;54709;43.614;1.576;2023-03-23T00:45:41;7.40;;;4.43;;
67904;SDS011;54709;43.614;1.576;2023-03-23T00:48:07;6.93;;;5.10;;
67904;SDS011;54709;43.614;1.576;2023-03-23T00:50:32;9.50;;;4.30;;
67904;SDS011;54709;43.614;1.576;2023-03-23T00:52:58;7.70;;;4.45;;
67904;SDS011;54709;43.614;1.576;2023-03-23T00:55:24;6.93;;;4.38;;
67904;SDS011;54709;43.614;1.576;2023-03-23T00:57:50;9.90;;;5.32;;
67904;SDS011;54709;43.614;1.576;2023-03-23T01:00:16;6.90;;;4.72;;
67904;SDS011;54709;43.614;1.576;2023-03-23T01:02:43;9.07;;;4.75;;
67904;SDS011;54709;43.614;1.576;2023-03-23T01:05:09;7.55;;;4.78;;
67904;SDS011;54709;43.614;1.576;2023-03-23T01:07:35;11.27;;;5.53;;
67904;SDS011;54709;43.614;1.576;2023-03-23T01:10:01;7.30;;;4.85;;
67904;SDS011;54709;43.614;1.576;2023-03-23T01:12:27;8.27;;;4.90;;
67904;SDS011;54709;43.614;1.576;2023-03-23T01:14:53;9.48;;;5.18;;
67904;SDS011;54709;43.614;1.576;2023-03-23T01:17:18;7.63;;;5.47;;
67904;SDS011;54709;43.614;1.576;2023-03-23T01:19:45;7.72;;;5.57;;
67904;SDS011;54709;43.614;1.576;2023-03-23T01:22:11;8.65;;;5.80;;
67904;SDS011;54709;43.614;1.576;2023-03-23T01:24:36;8.93;;;5.38;;
67904;SDS011;54709;43.614;1.576;2023-03-23T01:27:02;7.00;;;5.03;;
67904;SDS011;54709;43.614;1.576;2023-03-23T01:29:32;7.70;;;5.68;;
67904;SDS011;54709;43.614;1.576;2023-03-23T01:32:00;8.32;;;5.53;;
67904;SDS011;54709;43.614;1.576;2023-03-23T01:34:26;9.68;;;5.60;;
67904;SDS011;54709;43.614;1.576;2023-03-23T01:36:52;7.90;;;5.60;;
67904;SDS011;54709;43.614;1.576;2023-03-23T01:39:17;8.18;;;5.68;;
67904;SDS011;54709;43.614;1.576;2023-03-23T01:41:42;9.38;;;6.03;;
67904;SDS011;54709;43.614;1.576;2023-03-23T01:46:56;9.98;;;6.35;;
67904;SDS011;54709;43.614;1.576;2023-03-23T01:49:29;9.10;;;6.80;;
67904;SDS011;54709;43.614;1.576;2023-03-23T01:52:03;11.30;;;7.30;;
67904;SDS011;54709;43.614;1.576;2023-03-23T01:54:31;10.32;;;6.28;;
67904;SDS011;54709;43.614;1.576;2023-03-23T01:56:59;8.73;;;6.07;;
67904;SDS011;54709;43.614;1.576;2023-03-23T01:59:26;10.38;;;6.63;;
67904;SDS011;54709;43.614;1.576;2023-03-23T02:01:53;14.30;;;7.07;;
67904;SDS011;54709;43.614;1.576;2023-03-23T02:04:19;10.75;;;6.97;;
67904;SDS011;54709;43.614;1.576;2023-03-23T02:06:46;12.32;;;6.90;;
67904;SDS011;54709;43.614;1.576;2023-03-23T02:09:12;9.52;;;7.10;;
67904;SDS011;54709;43.614;1.576;2023-03-23T02:11:44;11.65;;;7.53;;
67904;SDS011;54709;43.614;1.576;2023-03-23T02:14:10;14.20;;;7.70;;
67904;SDS011;54709;43.614;1.576;2023-03-23T02:33:40;8.93;;;7.35;;
67904;SDS011;54709;43.614;1.576;2023-03-23T02:41:08;9.68;;;7.13;;
67904;SDS011;54709;43.614;1.576;2023-03-23T02:43:42;10.23;;;8.00;;
67904;SDS011;54709;43.614;1.576;2023-03-23T02:46:09;12.70;;;7.55;;
67904;SDS011;54709;43.614;1.576;2023-03-23T02:48:35;13.27;;;7.80;;
67904;SDS011;54709;43.614;1.576;2023-03-23T02:51:02;11.15;;;7.60;;
67904;SDS011;54709;43.614;1.576;2023-03-23T02:53:28;12.77;;;7.82;;
67904;SDS011;54709;43.614;1.576;2023-03-23T02:55:55;12.98;;;7.95;;
67904;SDS011;54709;43.614;1.576;2023-03-23T02:58:21;15.10;;;7.95;;
67904;SDS011;54709;43.614;1.576;2023-03-23T03:00:50;11.05;;;8.20;;
67904;SDS011;54709;43.614;1.576;2023-03-23T03:03:19;12.52;;;8.15;;
67904;SDS011;54709;43.614;1.576;2023-03-23T03:06:02;11.65;;;7.97;;
67904;SDS011;54709;43.614;1.576;2023-03-23T03:08:37;13.60;;;8.15;;
67904;SDS011;54709;43.614;1.576;2023-03-23T03:11:11;11.23;;;7.43;;
67904;SDS011;54709;43.614;1.576;2023-03-23T03:19:02;13.77;;;8.20;;
67904;SDS011;54709;43.614;1.576;2023-03-23T03:21:32;10.93;;;7.45;;
67904;SDS011;54709;43.614;1.576;2023-03-23T03:24:00;11.38;;;7.45;;
67904;SDS011;54709;43.614;1.576;2023-03-23T03:26:28;13.63;;;7.57;;
67904;SDS011;54709;43.614;1.576;2023-03-23T03:28:54;11.23;;;7.93;;
67904;SDS011;54709;43.614;1.576;2023-03-23T03:31:21;15.35;;;8.52;;
67904;SDS011;54709;43.614;1.576;2023-03-23T03:33:49;11.00;;;7.80;;
67904;SDS011;54709;43.614;1.576;2023-03-23T03:36:17;12.43;;;8.23;;
67904;SDS011;54709;43.614;1.576;2023-03-23T03:38:44;12.45;;;8.07;;
67904;SDS011;54709;43.614;1.576;2023-03-23T03:41:11;16.17;;;8.55;;
67904;SDS011;54709;43.614;1.576;2023-03-23T03:43:37;13.27;;;8.57;;
67904;SDS011;54709;43.614;1.576;2023-03-23T03:46:03;12.73;;;7.97;;
67904;SDS011;54709;43.614;1.576;2023-03-23T03:48:28;12.00;;;8.15;;
67904;SDS011;54709;43.614;1.576;2023-03-23T03:50:53;11.02;;;7.72;;
67904;SDS011;54709;43.614;1.576;2023-03-23T03:53:22;13.27;;;8.27;;
67904;SDS011;54709;43.614;1.576;2023-03-23T03:55:48;14.73;;;8.65;;
67904;SDS011;54709;43.614;1.576;2023-03-23T03:58:15;12.50;;;8.10;;
67904;SDS011;54709;43.614;1.576;2023-03-23T04:00:40;13.93;;;8.02;;
67904;SDS011;54709;43.614;1.576;2023-03-23T04:03:07;12.15;;;7.72;;
67904;SDS011;54709;43.614;1.576;2023-03-23T04:05:34;10.50;;;6.95;;
67904;SDS011;54709;43.614;1.576;2023-03-23T04:08:01;12.75;;;7.03;;
67904;SDS011;54709;43.614;1.576;2023-03-23T04:10:29;11.95;;;7.15;;
67904;SDS011;54709;43.614;1.576;2023-03-23T04:12:56;9.48;;;6.57;;
67904;SDS011;54709;43.614;1.576;2023-03-23T04:15:22;12.57;;;6.85;;
67904;SDS011;54709;43.614;1.576;2023-03-23T04:17:47;10.90;;;7.15;;
67904;SDS011;54709;43.614;1.576;2023-03-23T04:20:13;11.10;;;6.75;;
67904;SDS011;54709;43.614;1.576;2023-03-23T04:22:49;9.98;;;6.10;;
67904;SDS011;54709;43.614;1.576;2023-03-23T04:25:15;13.25;;;6.20;;
67904;SDS011;54709;43.614;1.576;2023-03-23T04:27:42;15.15;;;6.68;;
67904;SDS011;54709;43.614;1.576;2023-03-23T04:30:11;10.77;;;6.40;;
67904;SDS011;54709;43.614;1.576;2023-03-23T04:32:38;9.88;;;6.53;;
67904;SDS011;54709;43.614;1.576;2023-03-23T04:35:07;11.90;;;7.28;;
67904;SDS011;54709;43.614;1.576;2023-03-23T04:37:34;11.65;;;6.97;;
67904;SDS011;54709;43.614;1.576;2023-03-23T04:40:00;12.00;;;7.22;;
67904;SDS011;54709;43.614;1.576;2023-03-23T04:42:29;14.30;;;8.07;;
67904;SDS011;54709;43.614;1.576;2023-03-23T04:44:56;12.18;;;8.02;;
67904;SDS011;54709;43.614;1.576;2023-03-23T04:47:22;9.85;;;6.68;;
67904;SDS011;54709;43.614;1.576;2023-03-23T04:49:48;11.68;;;8.55;;
67904;SDS011;54709;43.614;1.576;2023-03-23T04:52:13;16.73;;;8.57;;
67904;SDS011;54709;43.614;1.576;2023-03-23T04:54:39;11.32;;;7.97;;
67904;SDS011;54709;43.614;1.576;2023-03-23T04:57:04;14.13;;;8.15;;
67904;SDS011;54709;43.614;1.576;2023-03-23T04:59:30;12.57;;;8.02;;
67904;SDS011;54709;43.614;1.576;2023-03-23T05:01:56;14.85;;;8.25;;
67904;SDS011;54709;43.614;1.576;2023-03-23T05:04:21;12.07;;;8.55;;
67904;SDS011;54709;43.614;1.576;2023-03-23T05:06:47;15.05;;;9.35;;
67904;SDS011;54709;43.614;1.576;2023-03-23T05:09:14;12.05;;;8.82;;
67904;SDS011;54709;43.614;1.576;2023-03-23T05:11:39;11.82;;;9.93;;
67904;SDS011;54709;43.614;1.576;2023-03-23T05:14:05;15.75;;;9.63;;
67904;SDS011;54709;43.614;1.576;2023-03-23T05:16:30;14.30;;;9.13;;
67904;SDS011;54709;43.614;1.576;2023-03-23T05:18:56;17.40;;;9.57;;
67904;SDS011;54709;43.614;1.576;2023-03-23T05:21:24;16.08;;;10.30;;
67904;SDS011;54709;43.614;1.576;2023-03-23T05:23:51;17.23;;;9.93;;
67904;SDS011;54709;43.614;1.576;2023-03-23T05:26:20;13.68;;;9.68;;
67904;SDS011;54709;43.614;1.576;2023-03-23T05:28:46;14.80;;;10.18;;
67904;SDS011;54709;43.614;1.576;2023-03-23T05:31:11;13.98;;;9.75;;
67904;SDS011;54709;43.614;1.576;2023-03-23T05:33:38;18.05;;;10.50;;
67904;SDS011;54709;43.614;1.576;2023-03-23T05:36:04;13.85;;;9.60;;
67904;SDS011;54709;43.614;1.576;2023-03-23T05:38:31;15.82;;;10.75;;
67904;SDS011;54709;43.614;1.576;2023-03-23T05:41:00;15.85;;;9.93;;
67904;SDS011;54709;43.614;1.576;2023-03-23T05:43:26;18.50;;;10.88;;
67904;SDS011;54709;43.614;1.576;2023-03-23T05:45:51;20.23;;;10.30;;
67904;SDS011;54709;43.614;1.576;2023-03-23T05:48:17;15.77;;;10.38;;
67904;SDS011;54709;43.614;1.576;2023-03-23T05:50:42;17.30;;;11.00;;
67904;SDS011;54709;43.614;1.576;2023-03-23T05:53:07;16.00;;;10.57;;
67904;SDS011;54709;43.614;1.576;2023-03-23T05:55:33;16.00;;;10.15;;
67904;SDS011;54709;43.614;1.576;2023-03-23T05:57:59;19.77;;;10.65;;
67904;SDS011;54709;43.614;1.576;2023-03-23T06:00:24;17.40;;;10.15;;
67904;SDS011;54709;43.614;1.576;2023-03-23T06:02:54;20.80;;;11.43;;
67904;SDS011;54709;43.614;1.576;2023-03-23T06:05:21;13.68;;;10.02;;
67904;SDS011;54709;43.614;1.576;2023-03-23T06:07:47;18.83;;;10.45;;
67904;SDS011;54709;43.614;1.576;2023-03-23T06:10:13;17.50;;;10.57;;
67904;SDS011;54709;43.614;1.576;2023-03-23T06:12:39;17.23;;;10.63;;
67904;SDS011;54709;43.614;1.576;2023-03-23T06:15:05;13.45;;;10.10;;
67904;SDS011;54709;43.614;1.576;2023-03-23T06:17:32;18.50;;;10.63;;
67904;SDS011;54709;43.614;1.576;2023-03-23T06:19:58;13.73;;;9.90;;
67904;SDS011;54709;43.614;1.576;2023-03-23T06:22:23;15.25;;;10.43;;
67904;SDS011;54709;43.614;1.576;2023-03-23T06:24:49;14.80;;;10.73;;
67904;SDS011;54709;43.614;1.576;2023-03-23T06:27:15;15.18;;;10.50;;
67904;SDS011;54709;43.614;1.576;2023-03-23T06:29:41;14.93;;;10.30;;
67904;SDS011;54709;43.614;1.576;2023-03-23T06:32:06;16.25;;;9.68;;
67904;SDS011;54709;43.614;1.576;2023-03-23T06:34:32;15.10;;;10.13;;
67904;SDS011;54709;43.614;1.576;2023-03-23T06:36:57;16.77;;;10.23;;
67904;SDS011;54709;43.614;1.576;2023-03-23T06:39:23;15.82;;;10.10;;
67904;SDS011;54709;43.614;1.576;2023-03-23T06:41:49;13.27;;;9.15;;
67904;SDS011;54709;43.614;1.576;2023-03-23T06:44:15;19.48;;;9.75;;
67904;SDS011;54709;43.614;1.576;2023-03-23T06:46:40;15.98;;;9.38;;
67904;SDS011;54709;43.614;1.576;2023-03-23T06:49:07;13.35;;;8.93;;
67904;SDS011;54709;43.614;1.576;2023-03-23T06:51:32;13.57;;;9.15;;
67904;SDS011;54709;43.614;1.576;2023-03-23T06:53:58;14.32;;;9.75;;
67904;SDS011;54709;43.614;1.576;2023-03-23T06:56:24;16.10;;;9.38;;
67904;SDS011;54709;43.614;1.576;2023-03-23T06:58:49;14.35;;;7.70;;
67904;SDS011;54709;43.614;1.576;2023-03-23T07:01:14;15.68;;;9.02;;
67904;SDS011;54709;43.614;1.576;2023-03-23T07:03:41;12.10;;;8.13;;
67904;SDS011;54709;43.614;1.576;2023-03-23T07:06:07;14.15;;;8.65;;
67904;SDS011;54709;43.614;1.576;2023-03-23T07:08:33;10.98;;;8.27;;
67904;SDS011;54709;43.614;1.576;2023-03-23T07:10:58;12.27;;;7.90;;
67904;SDS011;54709;43.614;1.576;2023-03-23T07:13:24;13.32;;;7.57;;
67904;SDS011;54709;43.614;1.576;2023-03-23T07:15:50;14.75;;;7.47;;
67904;SDS011;54709;43.614;1.576;2023-03-23T07:18:15;11.88;;;8.15;;
67904;SDS011;54709;43.614;1.576;2023-03-23T07:20:41;10.43;;;7.53;;
67904;SDS011;54709;43.614;1.576;2023-03-23T07:23:07;10.65;;;7.22;;
67904;SDS011;54709;43.614;1.576;2023-03-23T07:25:33;12.80;;;7.30;;
67904;SDS011;54709;43.614;1.576;2023-03-23T07:28:00;12.25;;;7.43;;
67904;SDS011;54709;43.614;1.576;2023-03-23T07:30:27;15.23;;;7.50;;
67904;SDS011;54709;43.614;1.576;2023-03-23T07:32:54;13.05;;;7.32;;
67904;SDS011;54709;43.614;1.576;2023-03-23T07:35:20;12.63;;;6.97;;
67904;SDS011;54709;43.614;1.576;2023-03-23T07:37:45;11.35;;;8.07;;
67904;SDS011;54709;43.614;1.576;2023-03-23T07:40:13;15.60;;;8.13;;
67904;SDS011;54709;43.614;1.576;2023-03-23T07:42:43;14.77;;;7.45;;
67904;SDS011;54709;43.614;1.576;2023-03-23T07:45:11;12.35;;;7.65;;
67904;SDS011;54709;43.614;1.576;2023-03-23T07:47:37;9.70;;;7.13;;
67904;SDS011;54709;43.614;1.576;2023-03-23T07:50:03;11.77;;;7.50;;
67904;SDS011;54709;43.614;1.576;2023-03-23T07:52:29;9.27;;;6.68;;
67904;SDS011;54709;43.614;1.576;2023-03-23T07:54:56;12.27;;;7.28;;
67904;SDS011;54709;43.614;1.576;2023-03-23T07:57:21;10.43;;;7.05;;
67904;SDS011;54709;43.614;1.576;2023-03-23T07:59:47;8.93;;;6.20;;
67904;SDS011;54709;43.614;1.576;2023-03-23T08:02:13;8.27;;;6.30;;
67904;SDS011;54709;43.614;1.576;2023-03-23T08:04:38;7.80;;;5.88;;
67904;SDS011;54709;43.614;1.576;2023-03-23T08:07:04;8.95;;;6.72;;
67904;SDS011;54709;43.614;1.576;2023-03-23T08:09:30;8.95;;;6.32;;
67904;SDS011;54709;43.614;1.576;2023-03-23T08:11:56;11.23;;;6.00;;
67904;SDS011;54709;43.614;1.576;2023-03-23T08:14:21;11.93;;;6.32;;
67904;SDS011;54709;43.614;1.576;2023-03-23T08:16:47;9.23;;;6.15;;
67904;SDS011;54709;43.614;1.576;2023-03-23T08:19:13;9.60;;;6.00;;
67904;SDS011;54709;43.614;1.576;2023-03-23T08:21:38;7.50;;;5.93;;
67904;SDS011;54709;43.614;1.576;2023-03-23T08:24:04;11.45;;;5.72;;
67904;SDS011;54709;43.614;1.576;2023-03-23T08:26:30;9.10;;;5.15;;
67904;SDS011;54709;43.614;1.576;2023-03-23T08:28:55;8.05;;;4.97;;
67904;SDS011;54709;43.614;1.576;2023-03-23T08:31:22;10.02;;;4.80;;
67904;SDS011;54709;43.614;1.576;2023-03-23T08:33:48;6.10;;;4.20;;
67904;SDS011;54709;43.614;1.576;2023-03-23T08:36:13;7.38;;;5.15;;
67904;SDS011;54709;43.614;1.576;2023-03-23T08:38:39;6.38;;;4.63;;
67904;SDS011;54709;43.614;1.576;2023-03-23T08:41:05;8.98;;;4.80;;
67904;SDS011;54709;43.614;1.576;2023-03-23T08:43:31;6.90;;;4.40;;
67904;SDS011;54709;43.614;1.576;2023-03-23T08:45:57;7.35;;;4.57;;
67904;SDS011;54709;43.614;1.576;2023-03-23T08:48:23;7.65;;;4.15;;
67904;SDS011;54709;43.614;1.576;2023-03-23T08:50:49;6.80;;;3.92;;
67904;SDS011;54709;43.614;1.576;2023-03-23T08:53:15;9.05;;;4.22;;
67904;SDS011;54709;43.614;1.576;2023-03-23T08:55:40;5.72;;;3.50;;
67904;SDS011;54709;43.614;1.576;2023-03-23T08:58:06;5.07;;;3.58;;
67904;SDS011;54709;43.614;1.576;2023-03-23T09:00:32;7.47;;;3.63;;
67904;SDS011;54709;43.614;1.576;2023-03-23T09:02:57;7.10;;;3.75;;
67904;SDS011;54709;43.614;1.576;2023-03-23T09:05:24;4.22;;;3.40;;
67904;SDS011;54709;43.614;1.576;2023-03-23T09:07:51;5.70;;;3.78;;
67904;SDS011;54709;43.614;1.576;2023-03-23T09:10:17;6.53;;;3.80;;
67904;SDS011;54709;43.614;1.576;2023-03-23T09:12:43;5.88;;;3.90;;
67904;SDS011;54709;43.614;1.576;2023-03-23T09:15:11;7.13;;;4.03;;
67904;SDS011;54709;43.614;1.576;2023-03-23T09:17:39;5.50;;;3.88;;
67904;SDS011;54709;43.614;1.576;2023-03-23T09:20:10;8.60;;;4.90;;
67904;SDS011;54709;43.614;1.576;2023-03-23T09:22:40;9.45;;;4.60;;
67904;SDS011;54709;43.614;1.576;2023-03-23T09:25:07;7.35;;;4.95;;
67904;SDS011;54709;43.614;1.576;2023-03-23T09:27:34;9.13;;;5.43;;
67904;SDS011;54709;43.614;1.576;2023-03-23T09:30:02;8.00;;;5.07;;
67904;SDS011;54709;43.614;1.576;2023-03-23T09:32:31;7.93;;;4.93;;
67904;SDS011;54709;43.614;1.576;2023-03-23T09:34:58;7.93;;;5.07;;
67904;SDS011;54709;43.614;1.576;2023-03-23T09:37:23;7.15;;;4.82;;
67904;SDS011;54709;43.614;1.576;2023-03-23T09:39:49;8.48;;;4.88;;
67904;SDS011;54709;43.614;1.576;2023-03-23T09:42:34;6.95;;;4.80;;
67904;SDS011;54709;43.614;1.576;2023-03-23T09:46:03;6.97;;;4.57;;
67904;SDS011;54709;43.614;1.576;2023-03-23T09:50:31;5.15;;;4.60;;
67904;SDS011;54709;43.614;1.576;2023-03-23T09:52:59;6.68;;;4.40;;
67904;SDS011;54709;43.614;1.576;2023-03-23T09:55:26;8.10;;;4.30;;
67904;SDS011;54709;43.614;1.576;2023-03-23T10:00:37;13.10;;;4.30;;
67904;SDS011;54709;43.614;1.576;2023-03-23T10:03:14;6.80;;;3.30;;
67904;SDS011;54709;43.614;1.576;2023-03-23T10:05:45;5.22;;;3.95;;
67904;SDS011;54709;43.614;1.576;2023-03-23T10:08:17;7.28;;;4.25;;
67904;SDS011;54709;43.614;1.576;2023-03-23T10:16:28;5.13;;;4.00;;
67904;SDS011;54709;43.614;1.576;2023-03-23T10:19:03;8.10;;;3.92;;
67904;SDS011;54709;43.614;1.576;2023-03-23T10:21:50;7.15;;;4.35;;
67904;SDS011;54709;43.614;1.576;2023-03-23T10:24:19;7.82;;;4.32;;
67904;SDS011;54709;43.614;1.576;2023-03-23T10:29:42;5.68;;;4.22;;
67904;SDS011;54709;43.614;1.576;2023-03-23T10:32:13;6.28;;;4.28;;
67904;SDS011;54709;43.614;1.576;2023-03-23T10:34:55;5.88;;;4.40;;
67904;SDS011;54709;43.614;1.576;2023-03-23T10:37:26;6.43;;;4.30;;
67904;SDS011;54709;43.614;1.576;2023-03-23T10:40:01;7.22;;;4.60;;
67904;SDS011;54709;43.614;1.576;2023-03-23T10:42:29;7.93;;;4.88;;
67904;SDS011;54709;43.614;1.576;2023-03-23T10:44:58;7.45;;;5.30;;
67904;SDS011;54709;43.614;1.576;2023-03-23T10:47:25;7.53;;;4.95;;
67904;SDS011;54709;43.614;1.576;2023-03-23T10:49:59;8.30;;;5.00;;
67904;SDS011;54709;43.614;1.576;2023-03-23T10:55:07;8.07;;;4.95;;
67904;SDS011;54709;43.614;1.576;2023-03-23T10:57:43;7.70;;;5.13;;
67904;SDS011;54709;43.614;1.576;2023-03-23T11:02:40;7.78;;;4.60;;
67904;SDS011;54709;43.614;1.576;2023-03-23T11:05:14;7.45;;;4.70;;
67904;SDS011;54709;43.614;1.576;2023-03-23T11:07:42;5.88;;;4.70;;
67904;SDS011;54709;43.614;1.576;2023-03-23T11:10:21;8.85;;;4.85;;
67904;SDS011;54709;43.614;1.576;2023-03-23T11:12:50;5.63;;;4.00;;
67904;SDS011;54709;43.614;1.576;2023-03-23T11:15:28;5.57;;;4.13;;
67904;SDS011;54709;43.614;1.576;2023-03-23T11:17:55;9.15;;;5.00;;
67904;SDS011;54709;43.614;1.576;2023-03-23T11:20:25;5.22;;;4.30;;
67904;SDS011;54709;43.614;1.576;2023-03-23T11:22:52;8.27;;;4.30;;
67904;SDS011;54709;43.614;1.576;2023-03-23T11:25:17;6.95;;;4.05;;
67904;SDS011;54709;43.614;1.576;2023-03-23T11:27:43;6.28;;;4.13;;
67904;SDS011;54709;43.614;1.576;2023-03-23T11:30:10;6.22;;;4.38;;
67904;SDS011;54709;43.614;1.576;2023-03-23T11:32:44;5.80;;;4.65;;
67904;SDS011;54709;43.614;1.576;2023-03-23T11:35:17;6.80;;;4.47;;
67904;SDS011;54709;43.614;1.576;2023-03-23T11:37:54;6.40;;;4.63;;
67904;SDS011;54709;43.614;1.576;2023-03-23T11:40:21;9.15;;;4.85;;
67904;SDS011;54709;43.614;1.576;2023-03-23T11:45:21;5.25;;;4.43;;
67904;SDS011;54709;43.614;1.576;2023-03-23T11:50:54;6.38;;;4.80;;
67904;SDS011;54709;43.614;1.576;2023-03-23T11:56:06;6.82;;;5.10;;
67904;SDS011;54709;43.614;1.576;2023-03-23T11:58:33;6.75;;;5.00;;
67904;SDS011;54709;43.614;1.576;2023-03-23T12:01:02;8.18;;;5.18;;
67904;SDS011;54709;43.614;1.576;2023-03-23T12:06:09;9.07;;;5.85;;
67904;SDS011;54709;43.614;1.576;2023-03-23T12:08:45;6.95;;;5.22;;
67904;SDS011;54709;43.614;1.576;2023-03-23T12:33:11;7.35;;;4.80;;
67904;SDS011;54709;43.614;1.576;2023-03-23T12:41:00;7.82;;;5.18;;
67904;SDS011;54709;43.614;1.576;2023-03-23T12:46:08;6.03;;;4.65;;
67904;SDS011;54709;43.614;1.576;2023-03-23T12:48:55;6.53;;;4.25;;
67904;SDS011;54709;43.614;1.576;2023-03-23T12:51:31;7.20;;;4.80;;
67904;SDS011;54709;43.614;1.576;2023-03-23T12:54:19;6.90;;;4.50;;
67904;SDS011;54709;43.614;1.576;2023-03-23T13:00:02;9.18;;;4.88;;
67904;SDS011;54709;43.614;1.576;2023-03-23T13:05:26;5.93;;;4.55;;
67904;SDS011;54709;43.614;1.576;2023-03-23T13:08:37;8.05;;;5.00;;
67904;SDS011;54709;43.614;1.576;2023-03-23T13:10:49;8.45;;;4.95;;
67904;SDS011;54709;43.614;1.576;2023-03-23T13:13:19;5.85;;;4.82;;
67904;SDS011;54709;43.614;1.576;2023-03-23T13:20:48;8.57;;;5.07;;
67904;SDS011;54709;43.614;1.576;2023-03-23T13:23:31;10.93;;;5.72;;
67904;SDS011;54709;43.614;1.576;2023-03-23T13:26:13;7.95;;;5.30;;
67904;SDS011;54709;43.614;1.576;2023-03-23T13:31:19;10.90;;;5.65;;
67904;SDS011;54709;43.614;1.576;2023-03-23T13:33:51;15.10;;;5.90;;
67904;SDS011;54709;43.614;1.576;2023-03-23T13:36:54;6.88;;;5.35;;
67904;SDS011;54709;43.614;1.576;2023-03-23T13:39:26;12.95;;;5.93;;
67904;SDS011;54709;43.614;1.576;2023-03-23T13:42:02;9.32;;;5.18;;
67904;SDS011;54709;43.614;1.576;2023-03-23T13:50:05;10.23;;;5.30;;
67904;SDS011;54709;43.614;1.576;2023-03-23T13:52:59;8.55;;;5.03;;
67904;SDS011;54709;43.614;1.576;2023-03-23T14:05:59;10.48;;;4.97;;
67904;SDS011;54709;43.614;1.576;2023-03-23T14:10:54;8.55;;;5.63;;
67904;SDS011;54709;43.614;1.576;2023-03-23T14:13:36;9.80;;;5.00;;
67904;SDS011;54709;43.614;1.576;2023-03-23T14:16:03;10.18;;;5.22;;
67904;SDS011;54709;43.614;1.576;2023-03-23T14:18:38;10.18;;;5.22;;
67904;SDS011;54709;43.614;1.576;2023-03-23T14:21:04;8.20;;;5.35;;
67904;SDS011;54709;43.614;1.576;2023-03-23T14:23:32;8.98;;;4.80;;
67904;SDS011;54709;43.614;1.576;2023-03-23T14:26:00;9.27;;;5.30;;
67904;SDS011;54709;43.614;1.576;2023-03-23T14:28:32;6.50;;;4.57;;
67904;SDS011;54709;43.614;1.576;2023-03-23T14:31:05;8.25;;;4.75;;
67904;SDS011;54709;43.614;1.576;2023-03-23T14:33:37;11.20;;;4.90;;
67904;SDS011;54709;43.614;1.576;2023-03-23T14:36:04;9.82;;;5.07;;
67904;SDS011;54709;43.614;1.576;2023-03-23T14:38:29;6.70;;;4.93;;
67904;SDS011;54709;43.614;1.576;2023-03-23T14:41:00;6.82;;;5.10;;
67904;SDS011;54709;43.614;1.576;2023-03-23T14:43:27;10.02;;;5.15;;
67904;SDS011;54709;43.614;1.576;2023-03-23T14:45:54;10.05;;;5.32;;
67904;SDS011;54709;43.614;1.576;2023-03-23T14:48:21;8.55;;;5.22;;
67904;SDS011;54709;43.614;1.576;2023-03-23T14:50:50;9.57;;;5.40;;
67904;SDS011;54709;43.614;1.576;2023-03-23T14:55:52;8.15;;;4.85;;
67904;SDS011;54709;43.614;1.576;2023-03-23T14:58:19;9.25;;;5.00;;
67904;SDS011;54709;43.614;1.576;2023-03-23T15:00:48;12.25;;;5.47;;
67904;SDS011;54709;43.614;1.576;2023-03-23T15:03:20;8.90;;;5.05;;
67904;SDS011;54709;43.614;1.576;2023-03-23T15:05:48;11.63;;;5.03;;
67904;SDS011;54709;43.614;1.576;2023-03-23T15:08:20;13.45;;;5.28;;
67904;SDS011;54709;43.614;1.576;2023-03-23T15:11:05;8.15;;;5.20;;
67904;SDS011;54709;43.614;1.576;2023-03-23T15:13:34;19.70;;;6.50;;
67904;SDS011;54709;43.614;1.576;2023-03-23T15:16:04;9.50;;;5.30;;
67904;SDS011;54709;43.614;1.576;2023-03-23T15:18:34;13.35;;;5.50;;
67904;SDS011;54709;43.614;1.576;2023-03-23T15:21:09;10.10;;;5.90;;
67904;SDS011;54709;43.614;1.576;2023-03-23T15:23:40;14.27;;;5.97;;
67904;SDS011;54709;43.614;1.576;2023-03-23T15:26:15;10.73;;;5.63;;
67904;SDS011;54709;43.614;1.576;2023-03-23T15:28:46;9.05;;;5.57;;
67904;SDS011;54709;43.614;1.576;2023-03-23T15:31:11;13.52;;;5.15;;
67904;SDS011;54709;43.614;1.576;2023-03-23T15:33:38;9.07;;;5.05;;
67904;SDS011;54709;43.614;1.576;2023-03-23T15:36:08;9.82;;;5.35;;
67904;SDS011;54709;43.614;1.576;2023-03-23T15:38:42;10.30;;;5.25;;
67904;SDS011;54709;43.614;1.576;2023-03-23T15:41:22;9.40;;;5.05;;
67904;SDS011;54709;43.614;1.576;2023-03-23T15:43:54;8.45;;;4.90;;
67904;SDS011;54709;43.614;1.576;2023-03-23T15:46:23;10.32;;;5.50;;
67904;SDS011;54709;43.614;1.576;2023-03-23T15:48:52;11.02;;;5.57;;
67904;SDS011;54709;43.614;1.576;2023-03-23T15:51:30;8.85;;;4.85;;
67904;SDS011;54709;43.614;1.576;2023-03-23T15:53:57;9.82;;;5.18;;
67904;SDS011;54709;43.614;1.576;2023-03-23T15:56:23;8.30;;;4.93;;
67904;SDS011;54709;43.614;1.576;2023-03-23T15:58:50;10.45;;;5.38;;
67904;SDS011;54709;43.614;1.576;2023-03-23T16:01:25;12.05;;;6.05;;
67904;SDS011;54709;43.614;1.576;2023-03-23T16:03:57;14.18;;;6.03;;
67904;SDS011;54709;43.614;1.576;2023-03-23T16:06:25;15.43;;;7.03;;
67904;SDS011;54709;43.614;1.576;2023-03-23T16:08:52;10.90;;;5.50;;
67904;SDS011;54709;43.614;1.576;2023-03-23T16:11:18;9.73;;;5.43;;
67904;SDS011;54709;43.614;1.576;2023-03-23T16:13:44;10.43;;;5.25;;
67904;SDS011;54709;43.614;1.576;2023-03-23T16:16:17;12.68;;;5.18;;
67904;SDS011;54709;43.614;1.576;2023-03-23T16:18:45;8.88;;;5.47;;
67904;SDS011;54709;43.614;1.576;2023-03-23T16:21:10;10.43;;;5.40;;
67904;SDS011;54709;43.614;1.576;2023-03-23T16:23:36;11.70;;;5.07;;
67904;SDS011;54709;43.614;1.576;2023-03-23T16:26:01;10.95;;;5.10;;
67904;SDS011;54709;43.614;1.576;2023-03-23T16:28:27;11.23;;;5.88;;
67904;SDS011;54709;43.614;1.576;2023-03-23T16:30:52;12.45;;;5.53;;
67904;SDS011;54709;43.614;1.576;2023-03-23T16:33:18;12.10;;;5.28;;
67904;SDS011;54709;43.614;1.576;2023-03-23T16:35:43;10.95;;;5.32;;
67904;SDS011;54709;43.614;1.576;2023-03-23T16:38:10;11.80;;;5.47;;
67904;SDS011;54709;43.614;1.576;2023-03-23T16:40:37;8.93;;;4.60;;
67904;SDS011;54709;43.614;1.576;2023-03-23T16:43:03;10.35;;;4.70;;
67904;SDS011;54709;43.614;1.576;2023-03-23T16:45:28;12.23;;;4.90;;
67904;SDS011;54709;43.614;1.576;2023-03-23T16:47:54;12.15;;;4.57;;
67904;SDS011;54709;43.614;1.576;2023-03-23T16:50:25;12.90;;;4.37;;
67904;SDS011;54709;43.614;1.576;2023-03-23T16:52:52;14.10;;;5.32;;
67904;SDS011;54709;43.614;1.576;2023-03-23T16:55:17;10.82;;;4.70;;